Time;durP1;ratioP1;P1;durP2;ratioP2;P2;SDS_P1;SDS_P2;PMS_P1;PMS_P2;Temp;Humidity;BMP_temperature;BMP_pressure;BME280_temperature;BME280_humidity;BME280_pressure;Samples;Min_cycle;Max_cycle;Signal;HPM_P1;HPM_P2
2023/01/15 00:01:19;;;;;;;4.07;2.07;;;;;;;;;;5086083;28;20173;-45
2023/01/15 00:03:45;;;;;;;4.22;2.20;;;;;;;;;;5086879;28;20451;-45
2023/01/15 00:06:11;;;;;;;11.67;3.10;;;;;;;;;;5088524;28;20177;-45
2023/01/15 00:08:37;;;;;;;6.47;2.80;;;;;;;;;;5089392;28;20939;-45
2023/01/15 00:11:03;;;;;;;2.00;1.90;;;;;;;;;;5094393;28;20819;-45
2023/01/15 00:13:29;;;;;;;3.63;2.53;;;;;;;;;;5091475;28;20508;-45
2023/01/15 00:16:02;;;;;;;1.83;1.70;;;;;;;;;;5093192;28;20412;-46
2023/01/15 00:18:28;;;;;;;4.88;2.38;;;;;;;;;;5090356;28;20439;-45
2023/01/15 00:21:04;;;;;;;2.93;2.70;;;;;;;;;;5088828;28;20197;-44
2023/01/15 00:29:04;;;;;;;2.42;2.22;;;;;;;;;;5085778;28;20200;-45
2023/01/15 00:31:31;;;;;;;3.83;2.78;;;;;;;;;;5086408;28;20170;-45
2023/01/15 00:33:57;;;;;;;1.98;1.88;;;;;;;;;;5087687;28;20194;-45
2023/01/15 00:36:24;;;;;;;3.33;2.00;;;;;;;;;;5091194;28;20169;-45
2023/01/15 00:38:50;;;;;;;5.60;2.42;;;;;;;;;;5090706;28;20416;-45
2023/01/15 00:41:16;;;;;;;2.03;1.83;;;;;;;;;;5091094;28;20633;-45
2023/01/15 00:43:42;;;;;;;9.03;2.60;;;;;;;;;;5092429;28;20837;-45
2023/01/15 00:46:08;;;;;;;14.27;2.63;;;;;;;;;;5093295;28;20894;-45
2023/01/15 00:48:35;;;;;;;3.42;1.90;;;;;;;;;;5084809;28;20822;-45
2023/01/15 00:51:01;;;;;;;3.78;2.10;;;;;;;;;;5084762;28;20169;-45
2023/01/15 00:53:27;;;;;;;5.30;1.88;;;;;;;;;;5090433;28;20206;-45
2023/01/15 00:55:53;;;;;;;4.57;1.83;;;;;;;;;;5093675;28;20166;-45
2023/01/15 00:58:19;;;;;;;3.83;2.10;;;;;;;;;;5091417;28;20929;-45
2023/01/15 01:00:45;;;;;;;3.30;2.47;;;;;;;;;;5087958;28;20899;-45
2023/01/15 01:03:11;;;;;;;3.55;2.60;;;;;;;;;;5089623;28;20418;-45
2023/01/15 01:05:37;;;;;;;3.50;1.85;;;;;;;;;;5085477;28;20645;-45
2023/01/15 01:08:03;;;;;;;3.87;2.50;;;;;;;;;;5083789;28;20701;-46
2023/01/15 01:10:29;;;;;;;7.80;2.80;;;;;;;;;;5084603;28;20418;-46
2023/01/15 01:12:55;;;;;;;7.55;2.60;;;;;;;;;;5086369;28;20399;-45
2023/01/15 01:15:22;;;;;;;5.73;2.30;;;;;;;;;;5089883;28;20205;-45
2023/01/15 01:17:48;;;;;;;3.90;2.30;;;;;;;;;;5088202;28;20430;-45
2023/01/15 01:20:15;;;;;;;3.83;2.20;;;;;;;;;;5088097;28;20216;-45
2023/01/15 01:22:41;;;;;;;4.72;1.90;;;;;;;;;;5084376;28;20173;-45
2023/01/15 01:25:08;;;;;;;3.58;1.58;;;;;;;;;;5091305;28;20660;-46
2023/01/15 01:27:34;;;;;;;1.50;1.40;;;;;;;;;;5092041;28;20189;-46
2023/01/15 01:30:00;;;;;;;1.93;1.83;;;;;;;;;;5084320;28;20561;-47
2023/01/15 01:32:26;;;;;;;4.73;1.57;;;;;;;;;;5084239;28;20420;-45
2023/01/15 01:34:52;;;;;;;2.55;1.50;;;;;;;;;;5086033;28;20468;-45
2023/01/15 01:37:18;;;;;;;1.93;1.83;;;;;;;;;;5088057;28;20241;-45
2023/01/15 01:39:44;;;;;;;2.80;1.37;;;;;;;;;;5086141;28;20411;-45
2023/01/15 01:42:14;;;;;;;3.57;1.87;;;;;;;;;;5084236;28;20415;-44
2023/01/15 01:44:41;;;;;;;5.70;1.52;;;;;;;;;;5085832;28;20411;-44
2023/01/15 01:47:21;;;;;;;7.75;1.50;;;;;;;;;;5086720;28;20198;-47
2023/01/15 01:49:48;;;;;;;1.52;1.13;;;;;;;;;;5088988;28;20174;-45
2023/01/15 01:52:20;;;;;;;1.45;1.35;;;;;;;;;;5083320;28;20606;-45
2023/01/15 01:54:48;;;;;;;5.15;1.40;;;;;;;;;;5080706;28;20281;-45
2023/01/15 01:57:15;;;;;;;1.30;1.20;;;;;;;;;;5087899;28;20688;-45
2023/01/15 01:59:42;;;;;;;5.63;1.70;;;;;;;;;;5086939;28;20531;-45
2023/01/15 02:02:08;;;;;;;1.15;1.05;;;;;;;;;;5086311;28;20786;-45
2023/01/15 02:04:35;;;;;;;4.63;1.10;;;;;;;;;;5088144;28;20654;-45
2023/01/15 02:07:02;;;;;;;1.67;1.13;;;;;;;;;;5089455;28;20228;-45
2023/01/15 02:09:28;;;;;;;1.30;1.20;;;;;;;;;;5090884;28;20563;-45
2023/01/15 02:11:57;;;;;;;2.20;1.40;;;;;;;;;;5083634;28;20404;-45
2023/01/15 02:14:30;;;;;;;1.63;1.52;;;;;;;;;;5082137;28;20798;-45
2023/01/15 02:17:00;;;;;;;2.40;1.20;;;;;;;;;;5083866;28;20571;-45
2023/01/15 02:19:45;;;;;;;3.65;1.42;;;;;;;;;;5088181;28;21280;-44
2023/01/15 02:22:19;;;;;;;1.40;1.13;;;;;;;;;;5080851;28;20193;-45
2023/01/15 02:25:07;;;;;;;1.23;1.13;;;;;;;;;;5084835;28;20570;-45
2023/01/15 02:27:33;;;;;;;4.30;1.38;;;;;;;;;;5082923;28;20209;-44
2023/01/15 02:29:59;;;;;;;3.15;1.95;;;;;;;;;;5083298;28;20177;-45
2023/01/15 02:32:28;;;;;;;2.70;1.40;;;;;;;;;;5083006;28;20174;-45
2023/01/15 02:34:55;;;;;;;1.53;1.43;;;;;;;;;;5085953;28;20516;-45
2023/01/15 02:37:26;;;;;;;1.42;1.30;;;;;;;;;;5084998;28;20800;-45
2023/01/15 02:39:54;;;;;;;1.38;1.27;;;;;;;;;;5090639;28;20170;-44
2023/01/15 02:42:21;;;;;;;5.53;3.05;;;;;;;;;;5084012;28;20166;-45
2023/01/15 02:44:49;;;;;;;2.00;1.40;;;;;;;;;;5085552;28;20223;-44
2023/01/15 02:47:16;;;;;;;3.33;1.30;;;;;;;;;;5080175;28;20205;-43
2023/01/15 02:49:43;;;;;;;3.40;1.40;;;;;;;;;;5086493;28;20495;-44
2023/01/15 02:52:13;;;;;;;2.45;1.20;;;;;;;;;;5084856;28;20170;-44
2023/01/15 02:54:43;;;;;;;4.25;1.23;;;;;;;;;;5090285;28;20699;-44
2023/01/15 02:57:10;;;;;;;4.70;1.20;;;;;;;;;;5090277;28;20201;-45
2023/01/15 02:59:38;;;;;;;4.67;1.50;;;;;;;;;;5083734;28;20223;-44
2023/01/15 03:02:07;;;;;;;1.98;1.48;;;;;;;;;;5083819;28;20427;-44
2023/01/15 03:04:36;;;;;;;3.97;1.48;;;;;;;;;;5084522;28;20166;-44
2023/01/15 03:07:05;;;;;;;4.30;1.50;;;;;;;;;;5095354;28;20730;-45
2023/01/15 03:09:32;;;;;;;2.78;1.40;;;;;;;;;;5090934;28;20861;-44
2023/01/15 03:12:13;;;;;;;6.00;1.75;;;;;;;;;;5091144;28;20185;-43
2023/01/15 03:14:45;;;;;;;4.90;1.48;;;;;;;;;;5085559;28;20194;-44
2023/01/15 03:17:20;;;;;;;3.95;1.45;;;;;;;;;;5090525;28;20201;-44
2023/01/15 03:20:06;;;;;;;1.75;1.63;;;;;;;;;;5088287;28;20181;-44
2023/01/15 03:22:33;;;;;;;1.50;1.40;;;;;;;;;;5086778;28;20169;-45
2023/01/15 03:25:03;;;;;;;4.20;1.60;;;;;;;;;;5087090;28;20688;-44
2023/01/15 03:27:29;;;;;;;1.30;1.20;;;;;;;;;;5087768;28;20680;-44
2023/01/15 03:29:58;;;;;;;3.45;1.40;;;;;;;;;;5087473;28;20400;-44
2023/01/15 03:32:24;;;;;;;3.05;1.67;;;;;;;;;;5086492;28;20249;-44
2023/01/15 03:34:51;;;;;;;1.35;1.25;;;;;;;;;;5088662;28;20673;-44
2023/01/15 03:37:18;;;;;;;3.15;1.30;;;;;;;;;;5090269;28;20296;-45
2023/01/15 03:39:44;;;;;;;1.77;1.30;;;;;;;;;;5088652;28;20166;-44
2023/01/15 03:42:15;;;;;;;1.48;1.20;;;;;;;;;;5086130;28;20201;-44
2023/01/15 03:44:55;;;;;;;1.50;1.40;;;;;;;;;;5090117;28;20181;-43
2023/01/15 03:47:21;;;;;;;4.03;1.50;;;;;;;;;;5090795;28;20557;-45
2023/01/15 03:49:53;;;;;;;2.23;1.50;;;;;;;;;;5093251;28;20680;-44
2023/01/15 03:52:27;;;;;;;2.45;1.30;;;;;;;;;;5094434;28;20498;-43
2023/01/15 03:54:52;;;;;;;1.40;1.10;;;;;;;;;;5086001;28;20225;-46
2023/01/15 03:57:29;;;;;;;1.67;1.03;;;;;;;;;;5085107;28;20223;-44
2023/01/15 03:59:58;;;;;;;2.17;1.35;;;;;;;;;;5087715;28;20399;-43
2023/01/15 04:02:24;;;;;;;3.83;1.63;;;;;;;;;;5090757;28;20177;-43
2023/01/15 04:04:52;;;;;;;1.90;1.33;;;;;;;;;;5088642;28;20262;-44
2023/01/15 04:07:18;;;;;;;3.65;1.70;;;;;;;;;;5084981;28;20443;-43
2023/01/15 04:09:45;;;;;;;1.33;1.20;;;;;;;;;;5087705;28;20178;-44
2023/01/15 04:12:11;;;;;;;4.43;1.40;;;;;;;;;;5090944;28;20181;-43
2023/01/15 04:14:37;;;;;;;1.50;1.10;;;;;;;;;;5084687;28;20232;-43
2023/01/15 04:17:03;;;;;;;2.30;1.37;;;;;;;;;;5085287;28;20186;-43
2023/01/15 04:19:29;;;;;;;1.67;1.20;;;;;;;;;;5090481;28;20952;-45
2023/01/15 04:21:55;;;;;;;4.00;1.30;;;;;;;;;;5088768;28;21002;-44
2023/01/15 04:24:21;;;;;;;2.50;1.37;;;;;;;;;;5087234;28;20419;-44
2023/01/15 04:26:47;;;;;;;3.73;1.30;;;;;;;;;;5087991;28;20423;-45
2023/01/15 04:29:13;;;;;;;1.60;1.40;;;;;;;;;;5090482;28;20429;-44
2023/01/15 04:31:39;;;;;;;1.40;1.30;;;;;;;;;;5092074;28;20419;-46
2023/01/15 04:34:05;;;;;;;1.20;1.10;;;;;;;;;;5093821;28;20489;-44
2023/01/15 04:36:34;;;;;;;1.97;1.57;;;;;;;;;;5079965;28;20472;-45
2023/01/15 04:39:00;;;;;;;3.25;2.03;;;;;;;;;;5091705;28;20411;-44
2023/01/15 04:44:11;;;;;;;1.50;1.40;;;;;;;;;;5093934;28;20539;-44
2023/01/15 04:46:37;;;;;;;3.80;1.60;;;;;;;;;;5084323;28;20170;-44
2023/01/15 04:49:03;;;;;;;1.40;1.30;;;;;;;;;;5085593;28;20417;-44
2023/01/15 04:51:29;;;;;;;3.92;1.27;;;;;;;;;;5089872;28;20185;-45
2023/01/15 04:53:55;;;;;;;5.67;1.40;;;;;;;;;;5088434;28;20201;-44
2023/01/15 04:56:21;;;;;;;4.65;1.23;;;;;;;;;;5084675;28;20407;-44
2023/01/15 04:58:47;;;;;;;4.20;1.50;;;;;;;;;;5085590;28;20532;-44
2023/01/15 05:01:15;;;;;;;3.80;1.40;;;;;;;;;;5087460;28;20911;-45
2023/01/15 05:03:41;;;;;;;3.67;1.42;;;;;;;;;;5089345;28;20405;-46
2023/01/15 05:06:07;;;;;;;4.40;1.55;;;;;;;;;;5093017;28;20181;-44
2023/01/15 05:08:33;;;;;;;4.07;1.33;;;;;;;;;;5090386;28;20702;-44
2023/01/15 05:11:03;;;;;;;8.83;1.50;;;;;;;;;;5092659;28;20181;-44
2023/01/15 05:13:31;;;;;;;1.45;1.35;;;;;;;;;;5088897;28;20451;-44
2023/01/15 05:15:57;;;;;;;4.78;1.45;;;;;;;;;;5087252;28;20222;-44
2023/01/15 05:18:23;;;;;;;4.60;1.50;;;;;;;;;;5078456;28;20202;-44
2023/01/15 05:20:50;;;;;;;5.90;1.70;;;;;;;;;;5084487;28;20769;-44
2023/01/15 05:23:16;;;;;;;2.70;1.15;;;;;;;;;;5084665;28;20835;-44
2023/01/15 05:25:42;;;;;;;8.57;1.90;;;;;;;;;;5087753;28;20167;-44
2023/01/15 05:28:08;;;;;;;2.70;1.47;;;;;;;;;;5089466;28;20213;-45
2023/01/15 05:30:34;;;;;;;8.20;2.10;;;;;;;;;;5079440;28;20416;-44
2023/01/15 05:33:00;;;;;;;2.80;1.53;;;;;;;;;;5084255;28;20420;-44
2023/01/15 05:35:26;;;;;;;8.93;1.80;;;;;;;;;;5084213;28;20467;-44
2023/01/15 05:37:52;;;;;;;3.63;1.27;;;;;;;;;;5083227;28;20581;-45
2023/01/15 05:40:18;;;;;;;1.93;1.83;;;;;;;;;;5085357;28;20769;-44
2023/01/15 05:42:43;;;;;;;8.33;1.60;;;;;;;;;;5087279;28;20836;-44
2023/01/15 05:45:09;;;;;;;4.50;1.60;;;;;;;;;;5090686;28;20434;-44
2023/01/15 05:47:35;;;;;;;2.83;1.42;;;;;;;;;;5087443;28;20438;-44
2023/01/15 05:50:01;;;;;;;3.10;1.40;;;;;;;;;;5086006;28;20273;-44
2023/01/15 05:52:27;;;;;;;5.83;1.60;;;;;;;;;;5082490;28;20411;-44
2023/01/15 05:54:53;;;;;;;4.93;1.80;;;;;;;;;;5083050;28;20463;-44
2023/01/15 05:57:19;;;;;;;2.40;1.20;;;;;;;;;;5085279;28;20459;-45
2023/01/15 05:59:46;;;;;;;2.63;1.70;;;;;;;;;;5090742;28;20397;-44
2023/01/15 06:02:12;;;;;;;4.40;1.85;;;;;;;;;;5082848;28;20425;-44
2023/01/15 06:04:38;;;;;;;6.90;1.70;;;;;;;;;;5087338;28;20186;-44
2023/01/15 06:07:04;;;;;;;7.10;1.80;;;;;;;;;;5086260;28;20434;-44
2023/01/15 06:09:30;;;;;;;14.33;2.30;;;;;;;;;;5083619;28;20407;-44
2023/01/15 06:11:56;;;;;;;7.37;2.00;;;;;;;;;;5084988;28;20919;-44
2023/01/15 06:14:22;;;;;;;11.37;2.60;;;;;;;;;;5082637;28;20546;-44
2023/01/15 06:16:48;;;;;;;3.13;2.00;;;;;;;;;;5082286;28;20399;-44
2023/01/15 06:19:13;;;;;;;9.90;1.80;;;;;;;;;;5083274;28;20162;-44
2023/01/15 06:21:40;;;;;;;1.50;1.40;;;;;;;;;;5087406;28;20734;-44
2023/01/15 06:24:06;;;;;;;3.22;1.65;;;;;;;;;;5089071;28;20407;-44
2023/01/15 06:26:32;;;;;;;9.52;1.52;;;;;;;;;;5082000;28;20174;-45
2023/01/15 06:28:58;;;;;;;4.63;3.17;;;;;;;;;;5087259;28;20170;-44
2023/01/15 06:31:27;;;;;;;4.90;1.40;;;;;;;;;;5083391;28;20264;-44
2023/01/15 06:33:53;;;;;;;3.60;2.05;;;;;;;;;;5083316;28;20447;-43
2023/01/15 06:36:20;;;;;;;7.27;1.87;;;;;;;;;;5083787;28;20181;-44
2023/01/15 06:38:46;;;;;;;6.90;2.23;;;;;;;;;;5083570;28;20438;-44
2023/01/15 06:49:29;;;;;;;6.07;1.80;;;;;;;;;;5088269;28;20189;-43
2023/01/15 06:51:55;;;;;;;4.97;1.70;;;;;;;;;;5087094;28;20244;-44
2023/01/15 06:54:21;;;;;;;4.60;2.00;;;;;;;;;;5085309;28;20470;-44
2023/01/15 06:56:47;;;;;;;4.03;1.70;;;;;;;;;;5086372;28;20400;-44
2023/01/15 06:59:13;;;;;;;1.70;1.60;;;;;;;;;;5082838;28;20412;-43
2023/01/15 07:01:38;;;;;;;8.93;1.63;;;;;;;;;;5082701;28;20923;-44
2023/01/15 07:04:04;;;;;;;4.10;1.70;;;;;;;;;;5073346;28;20417;-44
2023/01/15 07:06:31;;;;;;;2.83;2.20;;;;;;;;;;5088131;28;20414;-43
2023/01/15 07:08:57;;;;;;;2.47;1.85;;;;;;;;;;5083511;28;20668;-44
2023/01/15 07:11:23;;;;;;;1.53;1.30;;;;;;;;;;5087794;28;20562;-44
2023/01/15 07:13:49;;;;;;;7.22;1.90;;;;;;;;;;5085278;28;20549;-44
2023/01/15 07:16:27;;;;;;;10.97;2.13;;;;;;;;;;5082765;28;20660;-44
2023/01/15 07:18:56;;;;;;;6.33;1.70;;;;;;;;;;5083473;28;20443;-44
2023/01/15 07:21:22;;;;;;;1.63;1.52;;;;;;;;;;5082762;28;20452;-44
2023/01/15 07:23:48;;;;;;;4.00;1.57;;;;;;;;;;5082799;28;20177;-44
2023/01/15 07:26:15;;;;;;;4.10;1.83;;;;;;;;;;5082794;28;20989;-43
2023/01/15 07:28:41;;;;;;;6.05;1.65;;;;;;;;;;5083073;28;20525;-44
2023/01/15 07:31:07;;;;;;;9.03;1.63;;;;;;;;;;5090935;28;20332;-43
2023/01/15 07:33:33;;;;;;;2.25;1.70;;;;;;;;;;5083506;28;20463;-43
2023/01/15 07:36:02;;;;;;;9.10;2.10;;;;;;;;;;5084793;28;20189;-43
2023/01/15 07:38:27;;;;;;;2.20;2.00;;;;;;;;;;5085834;28;20507;-44
2023/01/15 07:51:56;;;;;;;6.18;2.20;;;;;;;;;;5086202;28;20535;-44
2023/01/15 07:54:22;;;;;;;1.73;1.50;;;;;;;;;;5085890;28;20292;-44
2023/01/15 07:56:48;;;;;;;6.55;2.30;;;;;;;;;;5085170;28;20178;-44
2023/01/15 07:59:14;;;;;;;5.43;1.80;;;;;;;;;;5093363;28;20188;-44
2023/01/15 08:01:40;;;;;;;1.90;1.70;;;;;;;;;;5089626;28;20170;-44
2023/01/15 08:04:06;;;;;;;7.90;2.37;;;;;;;;;;5090802;28;20909;-43
2023/01/15 08:06:32;;;;;;;8.30;1.30;;;;;;;;;;5080542;28;20417;-43
2023/01/15 08:08:58;;;;;;;2.70;1.67;;;;;;;;;;5089890;28;20412;-43
2023/01/15 08:16:54;;;;;;;3.45;1.88;;;;;;;;;;5086108;28;20212;-43
2023/01/15 08:19:20;;;;;;;5.35;2.53;;;;;;;;;;5085023;28;20189;-43
2023/01/15 08:21:46;;;;;;;6.33;1.70;;;;;;;;;;5085492;28;20432;-44
2023/01/15 08:24:12;;;;;;;8.52;1.40;;;;;;;;;;5090844;28;20869;-44
2023/01/15 08:26:38;;;;;;;4.47;1.73;;;;;;;;;;5091798;28;20209;-43
2023/01/15 08:29:04;;;;;;;5.13;2.50;;;;;;;;;;5093414;28;20468;-44
2023/01/15 08:31:30;;;;;;;1.70;1.60;;;;;;;;;;5090266;28;20466;-44
2023/01/15 08:33:56;;;;;;;4.87;1.63;;;;;;;;;;5088703;28;20957;-44
2023/01/15 08:36:22;;;;;;;1.50;1.30;;;;;;;;;;5083790;28;20491;-44
2023/01/15 08:38:49;;;;;;;8.40;2.23;;;;;;;;;;5084499;28;20435;-43
2023/01/15 08:41:15;;;;;;;6.20;2.25;;;;;;;;;;5085118;28;20413;-44
2023/01/15 08:43:41;;;;;;;8.40;2.10;;;;;;;;;;5087604;28;20193;-43
2023/01/15 08:46:07;;;;;;;3.40;1.90;;;;;;;;;;5089853;28;20502;-44
2023/01/15 08:48:34;;;;;;;5.00;1.70;;;;;;;;;;5078773;28;20896;-43
2023/01/15 08:51:03;;;;;;;6.00;2.30;;;;;;;;;;5080685;28;20899;-44
2023/01/15 08:53:29;;;;;;;4.97;2.00;;;;;;;;;;5084746;28;20586;-43
2023/01/15 08:55:55;;;;;;;5.63;1.40;;;;;;;;;;5088313;28;20400;-43
2023/01/15 08:58:21;;;;;;;4.83;1.90;;;;;;;;;;5084155;28;20432;-44
2023/01/15 09:00:50;;;;;;;2.17;1.47;;;;;;;;;;5087110;28;20406;-43
2023/01/15 09:03:16;;;;;;;3.20;1.60;;;;;;;;;;5089967;28;20465;-43
2023/01/15 09:05:42;;;;;;;4.00;2.00;;;;;;;;;;5086160;28;20174;-43
2023/01/15 09:08:08;;;;;;;1.70;1.40;;;;;;;;;;5083827;28;20514;-43
2023/01/15 09:10:34;;;;;;;7.93;1.40;;;;;;;;;;5085108;28;20429;-43
2023/01/15 09:13:01;;;;;;;4.20;1.80;;;;;;;;;;5086792;28;20400;-43
2023/01/15 09:15:31;;;;;;;2.85;1.38;;;;;;;;;;5089822;28;20224;-43
2023/01/15 09:17:57;;;;;;;5.97;1.50;;;;;;;;;;5091046;28;20217;-43
2023/01/15 09:20:23;;;;;;;2.97;2.75;;;;;;;;;;5089572;28;20185;-43
2023/01/15 09:22:50;;;;;;;2.83;1.50;;;;;;;;;;5091530;28;20169;-43
2023/01/15 09:25:18;;;;;;;2.35;1.20;;;;;;;;;;5091242;28;20210;-43
2023/01/15 09:27:44;;;;;;;1.20;1.00;;;;;;;;;;5085267;28;20196;-43
2023/01/15 09:30:13;;;;;;;2.90;1.20;;;;;;;;;;5082986;28;20552;-43
2023/01/15 09:32:39;;;;;;;4.65;1.23;;;;;;;;;;5082249;28;20462;-43
2023/01/15 09:35:06;;;;;;;2.07;1.13;;;;;;;;;;5092297;28;20210;-43
2023/01/15 09:37:32;;;;;;;7.22;1.25;;;;;;;;;;5086774;28;20503;-43
2023/01/15 09:39:57;;;;;;;4.13;1.93;;;;;;;;;;5087930;28;20268;-44
2023/01/15 09:42:56;;;;;;;5.40;1.70;;;;;;;;;;5085868;28;20438;-44
2023/01/15 09:45:25;;;;;;;4.70;1.30;;;;;;;;;;5046248;28;20447;-43
2023/01/15 09:47:51;;;;;;;2.40;1.47;;;;;;;;;;5088606;28;20427;-44
2023/01/15 09:50:17;;;;;;;2.50;1.20;;;;;;;;;;5089919;28;20417;-41
2023/01/15 09:52:58;;;;;;;6.00;1.30;;;;;;;;;;5092111;28;20395;-41
2023/01/15 09:55:28;;;;;;;2.27;1.37;;;;;;;;;;5079944;28;20467;-42
2023/01/15 09:57:55;;;;;;;4.13;1.20;;;;;;;;;;5086419;28;20951;-42
2023/01/15 10:00:25;;;;;;;9.60;1.57;;;;;;;;;;5090065;28;20400;-42
2023/01/15 10:03:20;;;;;;;2.80;1.60;;;;;;;;;;5091515;28;20416;-42
2023/01/15 10:05:52;;;;;;;5.90;1.67;;;;;;;;;;5020269;28;20509;-41
2023/01/15 10:08:24;;;;;;;1.47;1.30;;;;;;;;;;5081377;28;20427;-41
2023/01/15 10:10:54;;;;;;;4.73;1.73;;;;;;;;;;5085603;28;20423;-42
2023/01/15 10:13:38;;;;;;;7.53;1.50;;;;;;;;;;5087577;28;20958;-41
2023/01/15 10:16:04;;;;;;;4.00;2.13;;;;;;;;;;5087652;28;20899;-41
2023/01/15 10:18:30;;;;;;;7.03;1.70;;;;;;;;;;5082687;28;20542;-41
2023/01/15 10:21:11;;;;;;;4.50;1.57;;;;;;;;;;5083408;28;20507;-42
2023/01/15 10:23:41;;;;;;;2.40;1.80;;;;;;;;;;5084200;28;20400;-41
2023/01/15 10:26:22;;;;;;;7.33;1.87;;;;;;;;;;5083227;28;20812;-43
2023/01/15 10:29:20;;;;;;;2.57;1.70;;;;;;;;;;5082629;28;20423;-41
2023/01/15 10:31:53;;;;;;;3.70;1.90;;;;;;;;;;5047688;28;20908;-41
2023/01/15 10:34:39;;;;;;;4.87;1.50;;;;;;;;;;5083268;28;20450;-41
2023/01/15 10:37:05;;;;;;;5.33;2.03;;;;;;;;;;5053682;28;20812;-41
2023/01/15 10:39:39;;;;;;;3.00;1.53;;;;;;;;;;5083191;28;20398;-40
2023/01/15 10:42:16;;;;;;;3.57;1.63;;;;;;;;;;5083231;28;20409;-41
2023/01/15 10:44:45;;;;;;;8.50;1.70;;;;;;;;;;5084752;28;20454;-42
2023/01/15 10:47:14;;;;;;;5.17;1.60;;;;;;;;;;5086987;28;20438;-41
2023/01/15 10:49:41;;;;;;;13.23;1.73;;;;;;;;;;5084373;28;20662;-41
2023/01/15 10:52:13;;;;;;;4.30;1.87;;;;;;;;;;5084739;28;20467;-43
2023/01/15 10:54:44;;;;;;;7.70;1.93;;;;;;;;;;5086249;28;20462;-41
2023/01/15 10:57:13;;;;;;;6.97;1.83;;;;;;;;;;5082130;28;20431;-41
2023/01/15 10:59:49;;;;;;;11.60;1.63;;;;;;;;;;5082674;28;20410;-41
2023/01/15 11:02:17;;;;;;;3.73;1.80;;;;;;;;;;5082887;28;20729;-41
2023/01/15 11:04:43;;;;;;;4.50;1.47;;;;;;;;;;5086073;28;20407;-42
2023/01/15 11:07:12;;;;;;;2.33;1.20;;;;;;;;;;5088577;28;20446;-42
2023/01/15 11:09:40;;;;;;;4.93;1.77;;;;;;;;;;5087173;28;20436;-42
2023/01/15 11:20:36;;;;;;;7.93;1.73;;;;;;;;;;5084727;28;20442;-42
2023/01/15 11:23:07;;;;;;;6.17;1.80;;;;;;;;;;5086754;28;20418;-43
2023/01/15 11:25:33;;;;;;;5.30;1.30;;;;;;;;;;5086681;28;20418;-41
2023/01/15 11:28:00;;;;;;;7.23;1.87;;;;;;;;;;5086075;28;20441;-41
2023/01/15 11:30:31;;;;;;;2.07;1.60;;;;;;;;;;5086392;28;20486;-42
2023/01/15 11:32:58;;;;;;;4.90;2.20;;;;;;;;;;5087896;28;20411;-42
2023/01/15 11:35:24;;;;;;;6.77;1.57;;;;;;;;;;5092350;28;20903;-41
2023/01/15 11:38:01;;;;;;;3.27;1.60;;;;;;;;;;5091474;28;20429;-41
2023/01/15 11:40:26;;;;;;;7.00;2.20;;;;;;;;;;5091215;28;20415;-41
2023/01/15 11:51:31;;;;;;;3.40;1.70;;;;;;;;;;5091187;28;20417;-41
2023/01/15 11:54:00;;;;;;;9.53;1.83;;;;;;;;;;5089389;28;20460;-41
2023/01/15 11:56:27;;;;;;;5.13;1.83;;;;;;;;;;5090706;28;20848;-41
2023/01/15 11:58:54;;;;;;;1.73;1.33;;;;;;;;;;5085540;28;20446;-41
2023/01/15 12:01:32;;;;;;;5.50;1.63;;;;;;;;;;5087428;28;20407;-41
2023/01/15 12:03:59;;;;;;;4.90;1.80;;;;;;;;;;5089039;28;20405;-41
2023/01/15 12:06:25;;;;;;;2.97;1.67;;;;;;;;;;5091047;28;20492;-42
2023/01/15 12:09:00;;;;;;;4.60;1.43;;;;;;;;;;5092833;28;20438;-42
2023/01/15 12:11:26;;;;;;;8.00;1.63;;;;;;;;;;5092246;28;20414;-43
2023/01/15 12:14:00;;;;;;;3.53;1.30;;;;;;;;;;5093887;28;20465;-41
2023/01/15 12:16:32;;;;;;;2.30;1.53;;;;;;;;;;5090950;28;20414;-42
2023/01/15 12:18:58;;;;;;;4.20;2.03;;;;;;;;;;5088722;28;20424;-41
2023/01/15 12:21:37;;;;;;;3.87;1.37;;;;;;;;;;5085020;28;20485;-40
2023/01/15 12:24:22;;;;;;;2.93;1.30;;;;;;;;;;5085554;28;20442;-41
2023/01/15 12:27:01;;;;;;;2.70;1.43;;;;;;;;;;5084963;28;21027;-44
2023/01/15 12:29:59;;;;;;;5.70;1.97;;;;;;;;;;5093528;28;20958;-42
2023/01/15 12:32:30;;;;;;;7.10;1.63;;;;;;;;;;5057008;28;20424;-42
2023/01/15 12:35:01;;;;;;;1.37;1.27;;;;;;;;;;5084344;28;20462;-44
2023/01/15 12:37:29;;;;;;;3.63;1.53;;;;;;;;;;5084175;28;20779;-42
2023/01/15 12:40:05;;;;;;;2.30;1.57;;;;;;;;;;5086674;28;21051;-42
2023/01/15 12:45:20;;;;;;;5.63;1.53;;;;;;;;;;5091314;28;20530;-42
2023/01/15 12:47:55;;;;;;;4.30;1.30;;;;;;;;;;5089373;28;20436;-42
2023/01/15 12:50:43;;;;;;;1.67;1.27;;;;;;;;;;5089276;28;20417;-45
2023/01/15 12:53:09;;;;;;;2.53;1.20;;;;;;;;;;5090899;28;20418;-44
2023/01/15 12:55:38;;;;;;;1.70;1.40;;;;;;;;;;5092477;28;20549;-42
2023/01/15 12:58:05;;;;;;;1.37;1.27;;;;;;;;;;5085445;28;20457;-42
2023/01/15 13:00:36;;;;;;;2.30;1.37;;;;;;;;;;5087218;28;20407;-42
2023/01/15 13:03:05;;;;;;;5.53;1.40;;;;;;;;;;5088994;28;20934;-43
2023/01/15 13:05:36;;;;;;;6.57;1.30;;;;;;;;;;5090724;28;20415;-42
2023/01/15 13:08:15;;;;;;;1.80;1.17;;;;;;;;;;5092422;28;20431;-41
2023/01/15 13:10:42;;;;;;;3.40;1.60;;;;;;;;;;5081609;28;20415;-42
2023/01/15 13:13:15;;;;;;;6.90;1.10;;;;;;;;;;5089410;28;20954;-42
2023/01/15 13:16:02;;;;;;;3.87;1.93;;;;;;;;;;5087976;28;20459;-45
2023/01/15 13:18:54;;;;;;;5.87;1.43;;;;;;;;;;5084047;28;20433;-42
2023/01/15 13:21:23;;;;;;;3.80;1.43;;;;;;;;;;5083291;28;20457;-41
2023/01/15 13:23:49;;;;;;;1.37;1.10;;;;;;;;;;5092304;28;20768;-42
2023/01/15 13:26:34;;;;;;;1.50;1.33;;;;;;;;;;5091169;28;20420;-43
2023/01/15 13:29:18;;;;;;;1.73;1.33;;;;;;;;;;5081239;28;20447;-42
2023/01/15 13:31:47;;;;;;;7.20;1.60;;;;;;;;;;5080820;28;20953;-43
2023/01/15 13:34:17;;;;;;;2.97;1.30;;;;;;;;;;5084326;28;20462;-41
2023/01/15 13:36:46;;;;;;;4.13;1.23;;;;;;;;;;5084496;28;20942;-42
2023/01/15 13:39:16;;;;;;;1.30;1.20;;;;;;;;;;5084588;28;20427;-43
2023/01/15 13:44:32;;;;;;;5.07;1.87;;;;;;;;;;5083067;28;20408;-43
2023/01/15 13:47:04;;;;;;;1.77;1.17;;;;;;;;;;5091755;28;20801;-42
2023/01/15 13:49:33;;;;;;;2.80;1.50;;;;;;;;;;5089853;28;20413;-43
2023/01/15 13:52:03;;;;;;;4.03;1.30;;;;;;;;;;5090883;28;20473;-42
2023/01/15 13:54:30;;;;;;;9.73;1.70;;;;;;;;;;5088676;28;20501;-42
2023/01/15 13:57:06;;;;;;;2.10;1.20;;;;;;;;;;5076775;28;20424;-41
2023/01/15 13:59:40;;;;;;;3.53;1.70;;;;;;;;;;5083499;28;20409;-42
2023/01/15 14:02:13;;;;;;;1.30;1.20;;;;;;;;;;5083360;28;20408;-45
2023/01/15 14:04:39;;;;;;;2.33;1.40;;;;;;;;;;5083606;28;20408;-42
2023/01/15 14:07:17;;;;;;;5.17;1.40;;;;;;;;;;5083262;28;20440;-42
2023/01/15 14:09:43;;;;;;;2.42;1.50;;;;;;;;;;5079508;28;20409;-42
2023/01/15 14:12:31;;;;;;;2.53;1.30;;;;;;;;;;5090281;28;21173;-44
2023/01/15 14:15:08;;;;;;;1.30;1.20;;;;;;;;;;5090324;28;20995;-41
2023/01/15 14:17:47;;;;;;;2.57;1.47;;;;;;;;;;5084887;28;20449;-42
2023/01/15 14:20:25;;;;;;;1.53;1.40;;;;;;;;;;5088192;28;20427;-42
2023/01/15 14:23:12;;;;;;;1.60;1.50;;;;;;;;;;5082958;28;20406;-42
2023/01/15 14:25:40;;;;;;;3.97;1.60;;;;;;;;;;5079720;28;20457;-43
2023/01/15 14:28:23;;;;;;;2.00;1.40;;;;;;;;;;5084416;28;20435;-47
2023/01/15 14:31:07;;;;;;;1.50;1.40;;;;;;;;;;5083144;28;20410;-45
2023/01/15 14:33:52;;;;;;;1.50;1.10;;;;;;;;;;5081552;28;20407;-42
2023/01/15 14:36:20;;;;;;;1.60;1.40;;;;;;;;;;5083718;28;20406;-42
2023/01/15 14:38:51;;;;;;;2.47;1.40;;;;;;;;;;5083390;28;20514;-44
2023/01/15 14:41:25;;;;;;;3.77;1.83;;;;;;;;;;5082531;28;20407;-43
2023/01/15 14:43:52;;;;;;;1.43;1.13;;;;;;;;;;5087645;28;20412;-42
2023/01/15 14:46:23;;;;;;;4.23;2.93;;;;;;;;;;5090732;28;20405;-41
2023/01/15 14:48:49;;;;;;;4.00;1.90;;;;;;;;;;5090563;28;20480;-42
2023/01/15 14:51:23;;;;;;;2.00;1.40;;;;;;;;;;5083033;28;20541;-42
2023/01/15 14:53:50;;;;;;;3.60;1.60;;;;;;;;;;5085394;28;20455;-43
2023/01/15 14:56:16;;;;;;;4.20;1.60;;;;;;;;;;5088089;28;20409;-42
2023/01/15 14:58:47;;;;;;;1.80;1.53;;;;;;;;;;5090053;28;20907;-41
2023/01/15 15:01:31;;;;;;;2.13;1.53;;;;;;;;;;5094315;28;20413;-42
2023/01/15 15:03:59;;;;;;;1.53;1.43;;;;;;;;;;5095365;28;20461;-41
2023/01/15 15:06:26;;;;;;;3.53;1.90;;;;;;;;;;5086364;28;20445;-43
2023/01/15 15:08:54;;;;;;;2.03;1.70;;;;;;;;;;5083611;28;20424;-43
2023/01/15 15:14:09;;;;;;;4.70;1.60;;;;;;;;;;5090996;28;20466;-43
2023/01/15 15:16:40;;;;;;;1.80;1.50;;;;;;;;;;5091018;28;20783;-42
2023/01/15 15:19:16;;;;;;;1.47;1.37;;;;;;;;;;5086718;28;20980;-42
2023/01/15 15:21:44;;;;;;;2.87;1.37;;;;;;;;;;5087341;28;20408;-42
2023/01/15 15:24:13;;;;;;;2.90;1.30;;;;;;;;;;5091209;28;20762;-42
2023/01/15 15:26:39;;;;;;;3.70;1.57;;;;;;;;;;5086832;28;20803;-42
2023/01/15 15:29:08;;;;;;;6.93;2.13;;;;;;;;;;5086517;28;20399;-42
2023/01/15 15:31:36;;;;;;;3.60;1.37;;;;;;;;;;5086698;28;20461;-42
2023/01/15 15:34:02;;;;;;;1.53;1.40;;;;;;;;;;5086138;28;20455;-44
2023/01/15 15:36:29;;;;;;;3.43;1.87;;;;;;;;;;5085775;28;20446;-43
2023/01/15 15:38:59;;;;;;;2.37;1.50;;;;;;;;;;5087203;28;20424;-41
2023/01/15 15:50:03;;;;;;;4.30;1.47;;;;;;;;;;5031912;28;20553;-43
2023/01/15 15:52:29;;;;;;;2.50;1.40;;;;;;;;;;5077839;28;20414;-43
2023/01/15 15:55:05;;;;;;;2.30;1.23;;;;;;;;;;5085762;28;20508;-43
2023/01/15 15:57:31;;;;;;;3.53;1.50;;;;;;;;;;5092242;28;20899;-43
2023/01/15 15:59:58;;;;;;;1.90;1.60;;;;;;;;;;5094648;28;20460;-43
2023/01/15 16:02:28;;;;;;;1.70;1.40;;;;;;;;;;5082738;28;20902;-44